BAW2424 EGCC-EGKK
Flight info
| Callsign | BAW2424 |
|---|---|
| Flight time | 0h 40m |
| Altitude | 19000 |
| Route | LISTO2S LISTO L612 HON N859 KIDLI KIDLI1G |
| Aircraft | A320/M-SDE3FGHIRWY/LB1 |
Departure
| Time | 2026-05-08 07:01 |
|---|---|
| Airport | Manchester Airport (EGCC) |
Arrival
| Time | 2026-05-08 07:41 |
|---|---|
| Airport | London Gatwick Airport (EGKK) |
| Time | Latitude | Longitude | Altitude | Speed | Heading |
|---|---|---|---|---|---|
| 2026-05-08 06:46 | 53.35881 | -2.27535 | 248 ft | 0 kts | 96° |
| 2026-05-08 06:49 | 53.35881 | -2.27539 | 248 ft | 3 kts | 96° |
| 2026-05-08 06:49 | 53.35885 | -2.27582 | 248 ft | 4 kts | 107° |
| 2026-05-08 06:50 | 53.35896 | -2.27622 | 248 ft | 4 kts | 132° |
| 2026-05-08 06:50 | 53.35914 | -2.27641 | 248 ft | 2 kts | 185° |
| 2026-05-08 06:50 | 53.35902 | -2.27643 | 248 ft | 4 kts | 186° |
| 2026-05-08 06:50 | 53.35877 | -2.27648 | 248 ft | 2 kts | 186° |
| 2026-05-08 06:51 | 53.35875 | -2.27648 | 248 ft | 0 kts | 186° |
| 2026-05-08 06:56 | 53.35867 | -2.27649 | 247 ft | 3 kts | 185° |
| 2026-05-08 06:57 | 53.35833 | -2.27654 | 247 ft | 7 kts | 185° |
| 2026-05-08 06:57 | 53.35764 | -2.27656 | 247 ft | 12 kts | 168° |
| 2026-05-08 06:57 | 53.35666 | -2.27615 | 248 ft | 17 kts | 180° |
| 2026-05-08 06:57 | 53.35567 | -2.27744 | 247 ft | 21 kts | 224° |
| 2026-05-08 06:58 | 53.35451 | -2.27931 | 245 ft | 26 kts | 224° |
| 2026-05-08 06:58 | 53.35305 | -2.28172 | 238 ft | 32 kts | 225° |
| 2026-05-08 06:58 | 53.35148 | -2.28477 | 230 ft | 36 kts | 230° |
| 2026-05-08 06:58 | 53.34991 | -2.28739 | 231 ft | 23 kts | 185° |
| 2026-05-08 06:59 | 53.34932 | -2.28694 | 232 ft | 0 kts | 140° |
| 2026-05-08 06:59 | 53.34924 | -2.28682 | 232 ft | 5 kts | 139° |
| 2026-05-08 06:59 | 53.34881 | -2.28618 | 233 ft | 11 kts | 131° |
| 2026-05-08 07:00 | 53.34888 | -2.28508 | 239 ft | 0 kts | 50° |
| 2026-05-08 07:00 | 53.34976 | -2.28329 | 237 ft | 56 kts | 51° |
| 2026-05-08 07:00 | 53.35369 | -2.27512 | 258 ft | 120 kts | 52° |
| 2026-05-08 07:00 | 53.35958 | -2.26280 | 514 ft | 145 kts | 51° |
| 2026-05-08 07:01 | 53.36616 | -2.24921 | 1133 ft | 150 kts | 52° |
| 2026-05-08 07:01 | 53.37267 | -2.23551 | 1727 ft | 158 kts | 59° |
| 2026-05-08 07:01 | 53.37613 | -2.21718 | 2069 ft | 176 kts | 94° |
| 2026-05-08 07:01 | 53.37239 | -2.19694 | 2424 ft | 194 kts | 129° |
| 2026-05-08 07:02 | 53.36154 | -2.18218 | 2796 ft | 212 kts | 150° |
| 2026-05-08 07:02 | 53.34762 | -2.17035 | 3232 ft | 237 kts | 166° |
| 2026-05-08 07:02 | 53.33073 | -2.16918 | 3967 ft | 250 kts | 187° |
| 2026-05-08 07:02 | 53.31316 | -2.17216 | 4779 ft | 257 kts | 187° |
| 2026-05-08 07:03 | 53.29532 | -2.17508 | 5021 ft | 258 kts | 186° |
| 2026-05-08 07:03 | 53.27747 | -2.17793 | 5082 ft | 257 kts | 186° |
| 2026-05-08 07:03 | 53.25963 | -2.18074 | 5089 ft | 257 kts | 186° |
| 2026-05-08 07:03 | 53.24184 | -2.18354 | 5092 ft | 257 kts | 186° |
| 2026-05-08 07:04 | 53.22406 | -2.18632 | 5089 ft | 257 kts | 186° |
| 2026-05-08 07:04 | 53.20626 | -2.18910 | 5094 ft | 257 kts | 186° |
| 2026-05-08 07:04 | 53.18868 | -2.19186 | 5095 ft | 257 kts | 186° |
| 2026-05-08 07:04 | 53.17091 | -2.19464 | 5096 ft | 257 kts | 186° |
| 2026-05-08 07:05 | 53.15310 | -2.19701 | 5094 ft | 257 kts | 180° |
| 2026-05-08 07:05 | 53.13542 | -2.19285 | 5137 ft | 260 kts | 163° |
| 2026-05-08 07:05 | 53.11836 | -2.18126 | 5812 ft | 268 kts | 158° |
| 2026-05-08 07:05 | 53.10130 | -2.16930 | 6051 ft | 264 kts | 158° |
| 2026-05-08 07:06 | 53.08434 | -2.15765 | 6123 ft | 265 kts | 159° |
| 2026-05-08 07:06 | 53.06709 | -2.14589 | 6968 ft | 268 kts | 159° |
| 2026-05-08 07:06 | 53.04982 | -2.13411 | 8041 ft | 269 kts | 159° |
| 2026-05-08 07:06 | 53.03234 | -2.12222 | 9028 ft | 274 kts | 160° |
| 2026-05-08 07:07 | 53.01456 | -2.11013 | 9968 ft | 279 kts | 160° |
| 2026-05-08 07:07 | 52.99614 | -2.09753 | 10510 ft | 297 kts | 160° |
| 2026-05-08 07:07 | 52.97624 | -2.08389 | 10827 ft | 321 kts | 160° |
| 2026-05-08 07:07 | 52.95488 | -2.06924 | 11178 ft | 341 kts | 159° |
| 2026-05-08 07:08 | 52.93271 | -2.05398 | 11855 ft | 348 kts | 159° |
| 2026-05-08 07:08 | 52.91040 | -2.03861 | 12621 ft | 353 kts | 159° |
| 2026-05-08 07:08 | 52.88730 | -2.02269 | 13422 ft | 358 kts | 159° |
| 2026-05-08 07:08 | 52.86416 | -2.00677 | 14184 ft | 363 kts | 159° |
| 2026-05-08 07:09 | 52.84098 | -1.99090 | 14914 ft | 367 kts | 159° |
| 2026-05-08 07:09 | 52.81726 | -1.97469 | 15639 ft | 370 kts | 159° |
| 2026-05-08 07:09 | 52.79332 | -1.95835 | 16339 ft | 373 kts | 160° |
| 2026-05-08 07:09 | 52.76929 | -1.94197 | 17142 ft | 372 kts | 160° |
| 2026-05-08 07:10 | 52.74545 | -1.92576 | 18072 ft | 369 kts | 160° |
| 2026-05-08 07:10 | 52.72171 | -1.90962 | 18757 ft | 373 kts | 160° |
| 2026-05-08 07:10 | 52.69733 | -1.89307 | 18999 ft | 383 kts | 160° |
| 2026-05-08 07:10 | 52.67240 | -1.87616 | 19078 ft | 395 kts | 160° |
| 2026-05-08 07:11 | 52.64636 | -1.85853 | 19086 ft | 415 kts | 160° |
| 2026-05-08 07:11 | 52.61910 | -1.84010 | 19086 ft | 428 kts | 160° |
| 2026-05-08 07:11 | 52.59145 | -1.82142 | 19084 ft | 431 kts | 160° |
| 2026-05-08 07:11 | 52.56356 | -1.80257 | 19084 ft | 432 kts | 160° |
| 2026-05-08 07:12 | 52.53581 | -1.78383 | 19083 ft | 432 kts | 160° |
| 2026-05-08 07:12 | 52.50791 | -1.76503 | 19084 ft | 432 kts | 160° |
| 2026-05-08 07:12 | 52.48014 | -1.74634 | 19085 ft | 432 kts | 159° |
| 2026-05-08 07:12 | 52.45234 | -1.72763 | 19083 ft | 432 kts | 159° |
| 2026-05-08 07:13 | 52.42451 | -1.70895 | 19083 ft | 432 kts | 160° |
| 2026-05-08 07:13 | 52.39668 | -1.69036 | 19085 ft | 432 kts | 160° |
| 2026-05-08 07:13 | 52.36886 | -1.67180 | 19084 ft | 432 kts | 160° |
| 2026-05-08 07:13 | 52.34088 | -1.65396 | 19083 ft | 431 kts | 162° |
| 2026-05-08 07:14 | 52.31257 | -1.63794 | 19012 ft | 425 kts | 163° |
| 2026-05-08 07:14 | 52.28529 | -1.62382 | 18789 ft | 408 kts | 165° |
| 2026-05-08 07:14 | 52.25822 | -1.61050 | 18554 ft | 403 kts | 165° |
| 2026-05-08 07:14 | 52.23146 | -1.59747 | 18318 ft | 401 kts | 165° |
| 2026-05-08 07:15 | 52.20482 | -1.58427 | 18035 ft | 399 kts | 165° |
| 2026-05-08 07:15 | 52.17838 | -1.57089 | 17759 ft | 398 kts | 164° |
| 2026-05-08 07:15 | 52.15202 | -1.55732 | 17499 ft | 396 kts | 164° |
| 2026-05-08 07:15 | 52.12576 | -1.54372 | 17226 ft | 395 kts | 164° |
| 2026-05-08 07:16 | 52.09962 | -1.53014 | 16960 ft | 393 kts | 164° |
| 2026-05-08 07:16 | 52.07357 | -1.51658 | 16694 ft | 392 kts | 164° |
| 2026-05-08 07:16 | 52.04767 | -1.50313 | 16431 ft | 391 kts | 164° |
| 2026-05-08 07:16 | 52.02184 | -1.48976 | 16150 ft | 389 kts | 164° |
| 2026-05-08 07:17 | 51.99602 | -1.47643 | 15891 ft | 388 kts | 164° |
| 2026-05-08 07:17 | 51.97032 | -1.46319 | 15634 ft | 387 kts | 164° |
| 2026-05-08 07:17 | 51.94476 | -1.45004 | 15384 ft | 385 kts | 164° |
| 2026-05-08 07:17 | 51.91921 | -1.43690 | 15138 ft | 384 kts | 164° |
| 2026-05-08 07:18 | 51.89371 | -1.42382 | 14908 ft | 383 kts | 164° |
| 2026-05-08 07:18 | 51.86837 | -1.41083 | 15041 ft | 384 kts | 164° |
| 2026-05-08 07:18 | 51.84288 | -1.39781 | 15084 ft | 384 kts | 164° |
| 2026-05-08 07:18 | 51.81731 | -1.38474 | 15083 ft | 384 kts | 164° |
| 2026-05-08 07:19 | 51.79188 | -1.37176 | 15079 ft | 384 kts | 163° |
| 2026-05-08 07:19 | 51.76747 | -1.35589 | 15081 ft | 384 kts | 155° |
| 2026-05-08 07:19 | 51.74460 | -1.33361 | 14893 ft | 384 kts | 149° |
| 2026-05-08 07:19 | 51.72224 | -1.31013 | 14734 ft | 383 kts | 149° |
| 2026-05-08 07:20 | 51.69997 | -1.28674 | 14574 ft | 382 kts | 149° |
| 2026-05-08 07:20 | 51.67769 | -1.26347 | 14417 ft | 381 kts | 149° |
| 2026-05-08 07:20 | 51.65547 | -1.24034 | 14261 ft | 380 kts | 149° |
| 2026-05-08 07:20 | 51.63325 | -1.21731 | 14112 ft | 379 kts | 149° |
| 2026-05-08 07:21 | 51.61110 | -1.19440 | 13947 ft | 378 kts | 149° |
| 2026-05-08 07:21 | 51.58901 | -1.17156 | 13782 ft | 377 kts | 149° |
| 2026-05-08 07:21 | 51.56694 | -1.14875 | 13619 ft | 377 kts | 149° |
| 2026-05-08 07:21 | 51.54495 | -1.12602 | 13464 ft | 374 kts | 149° |
| 2026-05-08 07:22 | 51.52310 | -1.10342 | 13315 ft | 373 kts | 149° |
| 2026-05-08 07:22 | 51.50132 | -1.08090 | 13155 ft | 372 kts | 149° |
| 2026-05-08 07:22 | 51.47958 | -1.05846 | 13009 ft | 371 kts | 149° |
| 2026-05-08 07:22 | 51.45786 | -1.03611 | 12855 ft | 370 kts | 149° |
| 2026-05-08 07:23 | 51.43615 | -1.01382 | 12686 ft | 370 kts | 149° |
| 2026-05-08 07:23 | 51.41452 | -0.99161 | 12539 ft | 369 kts | 149° |
| 2026-05-08 07:23 | 51.39293 | -0.96945 | 12385 ft | 368 kts | 149° |
| 2026-05-08 07:23 | 51.37138 | -0.94736 | 12228 ft | 368 kts | 149° |
| 2026-05-08 07:24 | 51.35005 | -0.92555 | 11978 ft | 367 kts | 149° |
| 2026-05-08 07:24 | 51.32863 | -0.90364 | 11290 ft | 364 kts | 149° |
| 2026-05-08 07:24 | 51.30735 | -0.88190 | 10623 ft | 361 kts | 149° |
| 2026-05-08 07:24 | 51.28629 | -0.86039 | 9999 ft | 357 kts | 149° |
| 2026-05-08 07:25 | 51.26582 | -0.83949 | 9835 ft | 340 kts | 149° |
| 2026-05-08 07:25 | 51.24643 | -0.81966 | 9700 ft | 324 kts | 149° |
| 2026-05-08 07:25 | 51.20995 | -0.78249 | 9429 ft | 299 kts | 149° |
| 2026-05-08 07:26 | 51.19276 | -0.76509 | 9298 ft | 288 kts | 149° |
| 2026-05-08 07:26 | 51.17612 | -0.74830 | 9111 ft | 280 kts | 149° |
| 2026-05-08 07:26 | 51.15973 | -0.73181 | 8833 ft | 277 kts | 149° |
| 2026-05-08 07:26 | 51.14896 | -0.72097 | 8641 ft | 275 kts | 149° |
| 2026-05-08 07:27 | 51.13284 | -0.70468 | 8339 ft | 274 kts | 149° |
| 2026-05-08 07:27 | 51.11682 | -0.68850 | 8019 ft | 272 kts | 149° |
| 2026-05-08 07:27 | 51.10089 | -0.67243 | 7688 ft | 270 kts | 149° |
| 2026-05-08 07:27 | 51.08507 | -0.65648 | 7372 ft | 268 kts | 149° |
| 2026-05-08 07:28 | 51.06943 | -0.64061 | 7120 ft | 266 kts | 147° |
| 2026-05-08 07:28 | 51.06100 | -0.63096 | 7079 ft | 268 kts | 141° |
| 2026-05-08 07:28 | 51.04991 | -0.61152 | 7083 ft | 270 kts | 126° |
| 2026-05-08 07:28 | 51.04112 | -0.58504 | 7089 ft | 272 kts | 117° |
| 2026-05-08 07:29 | 51.03302 | -0.55798 | 7089 ft | 271 kts | 118° |
| 2026-05-08 07:29 | 51.02469 | -0.53102 | 7081 ft | 272 kts | 118° |
| 2026-05-08 07:29 | 51.01628 | -0.50418 | 7091 ft | 272 kts | 118° |
| 2026-05-08 07:29 | 51.00781 | -0.47734 | 7081 ft | 271 kts | 118° |
| 2026-05-08 07:30 | 50.99935 | -0.45057 | 7080 ft | 271 kts | 118° |
| 2026-05-08 07:30 | 50.99088 | -0.42376 | 7082 ft | 272 kts | 118° |
| 2026-05-08 07:30 | 50.98244 | -0.39700 | 7088 ft | 271 kts | 118° |
| 2026-05-08 07:30 | 50.97399 | -0.37023 | 7088 ft | 271 kts | 118° |
| 2026-05-08 07:31 | 50.96553 | -0.34341 | 7083 ft | 271 kts | 118° |
| 2026-05-08 07:31 | 50.95708 | -0.31663 | 7083 ft | 271 kts | 118° |
| 2026-05-08 07:31 | 50.94863 | -0.28987 | 7082 ft | 271 kts | 118° |
| 2026-05-08 07:31 | 50.94016 | -0.26316 | 7084 ft | 271 kts | 118° |
| 2026-05-08 07:32 | 50.93166 | -0.23640 | 7081 ft | 271 kts | 118° |
| 2026-05-08 07:32 | 50.92316 | -0.20965 | 7087 ft | 271 kts | 118° |
| 2026-05-08 07:32 | 50.91467 | -0.18298 | 7082 ft | 271 kts | 119° |
| 2026-05-08 07:32 | 50.90626 | -0.15656 | 7078 ft | 262 kts | 118° |
| 2026-05-08 07:33 | 50.90055 | -0.12929 | 7084 ft | 269 kts | 98° |
| 2026-05-08 07:33 | 50.90238 | -0.09944 | 7090 ft | 278 kts | 72° |
| 2026-05-08 07:33 | 50.91250 | -0.07379 | 7087 ft | 282 kts | 45° |
| 2026-05-08 07:33 | 50.92908 | -0.05780 | 7088 ft | 277 kts | 17° |
| 2026-05-08 07:34 | 50.94758 | -0.05514 | 7085 ft | 262 kts | 350° |
| 2026-05-08 07:34 | 50.96421 | -0.06461 | 7085 ft | 251 kts | 325° |
| 2026-05-08 07:34 | 50.97665 | -0.08343 | 7081 ft | 246 kts | 301° |
| 2026-05-08 07:34 | 50.98334 | -0.10797 | 7087 ft | 242 kts | 278° |
| 2026-05-08 07:35 | 50.98439 | -0.13450 | 7082 ft | 241 kts | 268° |
| 2026-05-08 07:35 | 50.98462 | -0.16112 | 7086 ft | 241 kts | 269° |
| 2026-05-08 07:35 | 50.98732 | -0.18742 | 7094 ft | 243 kts | 285° |
| 2026-05-08 07:35 | 50.99458 | -0.21177 | 6865 ft | 247 kts | 301° |
| 2026-05-08 07:36 | 51.00499 | -0.23375 | 6225 ft | 249 kts | 306° |
| 2026-05-08 07:36 | 51.01547 | -0.25529 | 5698 ft | 244 kts | 306° |
| 2026-05-08 07:36 | 51.02581 | -0.27657 | 5189 ft | 242 kts | 306° |
| 2026-05-08 07:36 | 51.03603 | -0.29761 | 4705 ft | 240 kts | 306° |
| 2026-05-08 07:37 | 51.04616 | -0.31866 | 4240 ft | 239 kts | 306° |
| 2026-05-08 07:37 | 51.05624 | -0.33966 | 3788 ft | 238 kts | 306° |
| 2026-05-08 07:37 | 51.06592 | -0.35986 | 3552 ft | 223 kts | 306° |
| 2026-05-08 07:37 | 51.07485 | -0.37849 | 3496 ft | 204 kts | 306° |
| 2026-05-08 07:38 | 51.08360 | -0.39625 | 3441 ft | 201 kts | 313° |
| 2026-05-08 07:38 | 51.09550 | -0.40661 | 3346 ft | 200 kts | 351° |
| 2026-05-08 07:38 | 51.10903 | -0.40433 | 3241 ft | 198 kts | 27° |
| 2026-05-08 07:38 | 51.11926 | -0.39049 | 2778 ft | 195 kts | 64° |
| 2026-05-08 07:39 | 51.12314 | -0.37025 | 2370 ft | 189 kts | 81° |
| 2026-05-08 07:39 | 51.12595 | -0.34999 | 2070 ft | 186 kts | 81° |
| 2026-05-08 07:39 | 51.12874 | -0.33001 | 1809 ft | 184 kts | 80° |
| 2026-05-08 07:39 | 51.13159 | -0.31012 | 1547 ft | 184 kts | 79° |
| 2026-05-08 07:40 | 51.13453 | -0.29037 | 1286 ft | 182 kts | 78° |
| 2026-05-08 07:40 | 51.13727 | -0.27081 | 1069 ft | 181 kts | 80° |
| 2026-05-08 07:40 | 51.13966 | -0.25126 | 901 ft | 179 kts | 78° |
| 2026-05-08 07:40 | 51.14232 | -0.23188 | 618 ft | 179 kts | 77° |
| 2026-05-08 07:41 | 51.14502 | -0.21270 | 326 ft | 176 kts | 77° |
| 2026-05-08 07:41 | 51.14759 | -0.19410 | 215 ft | 160 kts | 77° |
| 2026-05-08 07:41 | 51.14955 | -0.18002 | 211 ft | 81 kts | 78° |
| 2026-05-08 07:41 | 51.15038 | -0.17378 | 205 ft | 35 kts | 73° |
| 2026-05-08 07:42 | 51.15141 | -0.17210 | 206 ft | 12 kts | 3° |
| 2026-05-08 07:42 | 51.15179 | -0.17237 | 213 ft | 1 kts | 324° |
| 2026-05-08 07:42 | 51.15180 | -0.17237 | 213 ft | 0 kts | 324° |
| 2026-05-08 07:43 | 51.15180 | -0.17238 | 212 ft | 1 kts | 324° |
| 2026-05-08 07:43 | 51.15193 | -0.17252 | 207 ft | 4 kts | 324° |
| 2026-05-08 07:44 | 51.15223 | -0.17290 | 209 ft | 7 kts | 322° |
| 2026-05-08 07:44 | 51.15277 | -0.17338 | 212 ft | 11 kts | 337° |
| 2026-05-08 07:44 | 51.15357 | -0.17346 | 208 ft | 10 kts | 31° |
| 2026-05-08 07:44 | 51.15369 | -0.17281 | 207 ft | 3 kts | 74° |
| 2026-05-08 07:45 | 51.15391 | -0.17240 | 209 ft | 7 kts | 38° |
| 2026-05-08 07:45 | 51.15441 | -0.17182 | 207 ft | 10 kts | 35° |
| 2026-05-08 07:45 | 51.15466 | -0.17154 | 213 ft | 0 kts | 36° |